Allouez, MI (49805)

4:51 PM EDT on August 28, 2015 (GMT -0400)
Calumet Township North End | | Change Station
CLOSE
Current Station
Personal Weather Station
Location: Calumet Township, MI
Elevation: 1224 ft
Nearby Weather Stations

Elev 1224 ft 47.25 °N, 88.44 °W | Updated 10 minutes ago

Overcast
Overcast
69.4 °F
Feels Like 69.4 °F
N
6.3
Wind Variable Wind from WNW

Today
High -- | Low -- °F
--% Chance of Precip.
Yesterday
High -- | Low -- °F
Precip. -- in
7:07 AM 8:41 PM
Waxing Gibbous, 99% visible
Pressure 29.96 in
Visibility 10.0 miles
Clouds Overcast 2200 ft
Dew Point 65 °F
Humidity 87%
Rainfall 0.00 in
Snow Depth Not available.
UV 2 out of 12
Pollen 9.10 out of 12
Air Quality Not available.
Flu Activity Not available.
METAR KCMX 281953Z AUTO 27008KT 10SM OVC022 22/17 A2996 RMK AO2 SLP144 T02220167 TSNO
Pressure 29.96 in
Visibility 10.0 miles
Clouds Overcast 2200 ft
Dew Point 65 °F
Humidity 87%
Rainfall 0.00 in
Snow Depth Not available.
UV 2 out of 12
Pollen 9.10 out of 12
Air Quality Not available.
Flu Activity Not available.
METAR KCMX 281953Z AUTO 27008KT 10SM OVC022 22/17 A2996 RMK AO2 SLP144 T02220167 TSNO

10-Day Weather Forecast

×

Almanac

Astronomy

Aug. 28, 2015 Rise Set
Actual Time
Civil Twilight
Nautical Twilight
Astronomical Twilight
Moon
Length of Visible Light
Length of Day
Tomorrow will be .
, % of the Moon is Illuminated

Today's Extremes

State Highs State Lows

Community

WunderPhotos

Upload Photos

1,850,481 photos uploaded!

WunderBlogs® & News

Nearby

Air Quality

  Air Quality AQ Index Pollutant
Not available.

Snow Depth

Station Depth Elevation

Earthquake Activity

City Distance Mag. Time & Date
Minimum magnitude displayed is 2.5.

Coastal Water Temperatures

Place Temperature

Stations

Nearby Weather Stations

Station Location Temp. Windchill Dew Point Humidity Wind Precip. Elev Updated Type